Time;durP1;ratioP1;P1;durP2;ratioP2;P2;SDS_P1;SDS_P2;PMS_P1;PMS_P2;Temp;Humidity;BMP_temperature;BMP_pressure;BME280_temperature;BME280_humidity;BME280_pressure;Samples;Min_cycle;Max_cycle;Signal;HPM_P1;HPM_P2
2023/04/10 00:01:09;;;;;;;4.20;3.40;;;;;;;;;;5052640;28;20283;-62
2023/04/10 00:03:34;;;;;;;4.80;3.80;;;;;;;;;;5054502;28;20119;-64
2023/04/10 00:06:00;;;;;;;4.40;3.53;;;;;;;;;;5050284;28;20290;-62
2023/04/10 00:08:25;;;;;;;4.30;3.30;;;;;;;;;;5062236;28;20998;-62
2023/04/10 00:10:50;;;;;;;4.50;3.47;;;;;;;;;;5057957;28;20797;-62
2023/04/10 00:13:16;;;;;;;4.40;3.38;;;;;;;;;;5066090;28;20087;-61
2023/04/10 00:15:41;;;;;;;3.92;3.38;;;;;;;;;;5055576;28;20071;-60
2023/04/10 00:18:06;;;;;;;4.60;3.70;;;;;;;;;;5065621;28;20052;-63
2023/04/10 00:20:31;;;;;;;5.37;3.70;;;;;;;;;;5063193;28;20500;-63
2023/04/10 00:22:57;;;;;;;4.22;3.70;;;;;;;;;;5061632;28;20652;-61
2023/04/10 00:25:22;;;;;;;3.95;3.55;;;;;;;;;;5055617;28;20110;-61
2023/04/10 00:27:47;;;;;;;4.33;3.77;;;;;;;;;;5048472;28;20105;-61
2023/04/10 00:30:13;;;;;;;4.20;3.50;;;;;;;;;;5065359;28;20266;-65
2023/04/10 00:32:38;;;;;;;4.23;3.73;;;;;;;;;;5066927;28;20029;-61
2023/04/10 00:35:03;;;;;;;4.97;3.80;;;;;;;;;;5067047;28;20282;-63
2023/04/10 00:37:28;;;;;;;3.97;3.58;;;;;;;;;;5068364;28;20121;-62
2023/04/10 00:39:54;;;;;;;3.80;3.40;;;;;;;;;;5075583;28;20123;-63
2023/04/10 00:42:19;;;;;;;4.40;3.65;;;;;;;;;;5055049;28;20116;-61
2023/04/10 00:44:44;;;;;;;4.28;3.38;;;;;;;;;;5065974;28;20064;-61
2023/04/10 00:47:10;;;;;;;3.97;3.57;;;;;;;;;;5060759;28;20508;-63
2023/04/10 00:49:36;;;;;;;4.32;3.40;;;;;;;;;;5065828;28;20658;-62
2023/04/10 00:52:01;;;;;;;4.00;3.50;;;;;;;;;;5078069;28;20036;-64
2023/04/10 00:54:26;;;;;;;3.95;3.53;;;;;;;;;;5067259;28;20302;-62
2023/04/10 00:56:51;;;;;;;4.37;3.97;;;;;;;;;;5065562;28;20032;-60
2023/04/10 00:59:17;;;;;;;4.00;3.30;;;;;;;;;;5066761;28;20115;-62
2023/04/10 01:01:42;;;;;;;3.92;3.22;;;;;;;;;;5065317;28;20419;-60
2023/04/10 01:04:08;;;;;;;4.60;3.73;;;;;;;;;;5065649;28;20046;-61
2023/04/10 01:06:53;;;;;;;3.80;3.22;;;;;;;;;;5072157;28;20278;-61
2023/04/10 01:09:40;;;;;;;3.90;3.50;;;;;;;;;;5062897;28;20535;-61
2023/04/10 01:12:29;;;;;;;3.67;3.30;;;;;;;;;;5059313;28;20068;-61
2023/04/10 01:15:00;;;;;;;4.28;3.67;;;;;;;;;;5046980;28;20079;-63
2023/04/10 01:17:32;;;;;;;4.20;3.20;;;;;;;;;;5066305;28;20040;-61
2023/04/10 01:20:04;;;;;;;4.65;3.53;;;;;;;;;;5071205;28;20092;-62
2023/04/10 01:22:35;;;;;;;3.95;3.28;;;;;;;;;;5067899;28;20036;-62
2023/04/10 01:25:01;;;;;;;4.13;3.40;;;;;;;;;;5064865;28;20529;-61
2023/04/10 01:27:37;;;;;;;3.75;3.25;;;;;;;;;;5065637;28;20067;-63
2023/04/10 01:30:02;;;;;;;3.92;3.30;;;;;;;;;;5065809;28;20036;-62
2023/04/10 01:32:28;;;;;;;4.40;3.40;;;;;;;;;;5061587;28;20612;-61
2023/04/10 01:34:53;;;;;;;4.20;3.20;;;;;;;;;;5063794;28;20036;-63
2023/04/10 01:37:26;;;;;;;3.95;3.42;;;;;;;;;;5062967;28;20382;-61
2023/04/10 01:39:58;;;;;;;4.43;3.40;;;;;;;;;;5060320;28;20554;-62
2023/04/10 01:42:23;;;;;;;3.97;3.35;;;;;;;;;;5064210;28;20048;-61
2023/04/10 01:44:49;;;;;;;3.53;3.17;;;;;;;;;;5049035;28;20090;-63
2023/04/10 01:47:15;;;;;;;3.88;3.22;;;;;;;;;;5062699;28;20512;-63
2023/04/10 01:49:43;;;;;;;3.78;3.28;;;;;;;;;;5063582;28;20040;-61
2023/04/10 01:52:08;;;;;;;4.22;3.38;;;;;;;;;;5057317;28;20029;-60
2023/04/10 01:54:33;;;;;;;4.77;3.27;;;;;;;;;;5054907;28;20133;-61
2023/04/10 01:56:59;;;;;;;3.57;3.17;;;;;;;;;;5044591;28;20271;-60
2023/04/10 01:59:25;;;;;;;4.25;3.70;;;;;;;;;;5075440;28;20344;-63
2023/04/10 02:01:56;;;;;;;4.03;3.17;;;;;;;;;;5064672;28;20067;-63
2023/04/10 02:04:21;;;;;;;3.55;3.05;;;;;;;;;;5064928;28;20035;-61
2023/04/10 02:06:49;;;;;;;4.43;3.50;;;;;;;;;;5064801;28;20419;-62
2023/04/10 02:09:21;;;;;;;4.15;3.00;;;;;;;;;;5063405;28;20887;-61
2023/04/10 02:11:48;;;;;;;4.43;3.35;;;;;;;;;;5068284;28;20036;-62
2023/04/10 02:14:15;;;;;;;3.50;3.20;;;;;;;;;;5054703;28;20044;-62
2023/04/10 02:16:40;;;;;;;4.00;3.50;;;;;;;;;;5063793;28;20051;-62
2023/04/10 02:19:05;;;;;;;3.77;3.37;;;;;;;;;;5058796;28;20119;-61
2023/04/10 02:21:32;;;;;;;3.77;3.27;;;;;;;;;;5060742;28;20275;-62
2023/04/10 02:23:57;;;;;;;3.40;3.00;;;;;;;;;;5065012;28;20032;-61
2023/04/10 02:26:23;;;;;;;3.93;3.30;;;;;;;;;;5076405;28;20038;-61
2023/04/10 02:28:48;;;;;;;3.35;2.92;;;;;;;;;;5066853;28;20314;-61
2023/04/10 02:31:13;;;;;;;3.90;3.30;;;;;;;;;;5061764;28;20513;-60
2023/04/10 02:33:38;;;;;;;3.53;3.10;;;;;;;;;;5062167;28;20633;-62
2023/04/10 02:36:04;;;;;;;3.83;3.25;;;;;;;;;;5063295;28;20440;-62
2023/04/10 02:38:29;;;;;;;4.18;3.38;;;;;;;;;;5064814;28;20053;-62
2023/04/10 02:40:55;;;;;;;4.03;3.42;;;;;;;;;;5075862;28;20210;-63
2023/04/10 02:43:20;;;;;;;3.97;3.42;;;;;;;;;;5052108;28;20039;-62
2023/04/10 02:45:45;;;;;;;3.57;3.17;;;;;;;;;;5063185;28;20047;-64
2023/04/10 02:48:10;;;;;;;3.60;3.10;;;;;;;;;;5064836;28;20346;-62
2023/04/10 02:50:36;;;;;;;3.43;3.10;;;;;;;;;;5064777;28;20635;-62
2023/04/10 02:53:01;;;;;;;3.40;3.10;;;;;;;;;;5070040;28;20370;-62
2023/04/10 02:55:26;;;;;;;4.13;3.30;;;;;;;;;;5074327;28;20078;-63
2023/04/10 02:57:51;;;;;;;3.92;3.20;;;;;;;;;;5063355;28;20370;-62
2023/04/10 03:00:18;;;;;;;3.60;3.10;;;;;;;;;;5064898;28;20040;-63
2023/04/10 03:02:43;;;;;;;4.13;3.30;;;;;;;;;;5064060;28;20548;-62
2023/04/10 03:05:09;;;;;;;3.90;3.20;;;;;;;;;;5064572;28;20068;-63
2023/04/10 03:07:34;;;;;;;3.55;3.10;;;;;;;;;;5069070;28;20552;-62
2023/04/10 03:09:59;;;;;;;3.50;3.00;;;;;;;;;;5065244;28;20063;-63
2023/04/10 03:12:25;;;;;;;3.53;3.05;;;;;;;;;;5062647;28;20939;-63
2023/04/10 03:14:50;;;;;;;4.65;3.38;;;;;;;;;;5064525;28;20024;-62
2023/04/10 03:17:15;;;;;;;3.57;3.17;;;;;;;;;;5062377;28;20073;-61
2023/04/10 03:19:40;;;;;;;3.63;3.00;;;;;;;;;;5062315;28;20281;-61
2023/04/10 03:22:06;;;;;;;3.22;2.72;;;;;;;;;;5070969;28;20033;-61
2023/04/10 03:24:31;;;;;;;3.78;3.00;;;;;;;;;;5066487;28;20082;-60
2023/04/10 03:26:57;;;;;;;3.87;3.20;;;;;;;;;;5054858;28;20056;-61
2023/04/10 03:29:22;;;;;;;3.33;2.88;;;;;;;;;;5064413;28;20286;-63
2023/04/10 03:31:47;;;;;;;3.70;3.08;;;;;;;;;;5061747;28;20501;-65
2023/04/10 03:34:13;;;;;;;4.30;3.13;;;;;;;;;;5051627;28;20060;-61
2023/04/10 03:36:38;;;;;;;3.20;2.90;;;;;;;;;;5063945;28;20055;-62
2023/04/10 03:39:03;;;;;;;3.28;2.97;;;;;;;;;;5060623;28;20869;-61
2023/04/10 03:41:29;;;;;;;4.07;3.07;;;;;;;;;;5064081;28;20048;-61
2023/04/10 03:43:55;;;;;;;3.15;2.85;;;;;;;;;;5063725;28;20279;-61
2023/04/10 03:46:21;;;;;;;3.45;3.13;;;;;;;;;;5063907;28;20066;-63
2023/04/10 03:48:48;;;;;;;3.78;3.30;;;;;;;;;;5062372;28;20128;-63
2023/04/10 03:51:13;;;;;;;3.45;2.85;;;;;;;;;;5068082;28;20040;-62
2023/04/10 03:53:38;;;;;;;3.57;3.20;;;;;;;;;;5077890;28;20093;-62
2023/04/10 03:56:04;;;;;;;3.93;3.00;;;;;;;;;;5066333;28;20324;-61
2023/04/10 03:58:29;;;;;;;3.30;3.00;;;;;;;;;;5065925;28;20040;-61
2023/04/10 04:00:55;;;;;;;3.10;2.77;;;;;;;;;;5060588;28;20727;-62
2023/04/10 04:03:20;;;;;;;3.83;3.20;;;;;;;;;;5065891;28;20063;-60
2023/04/10 04:05:45;;;;;;;3.17;2.70;;;;;;;;;;5063198;28;20043;-61
2023/04/10 04:08:12;;;;;;;3.67;2.90;;;;;;;;;;5067606;28;20730;-62
2023/04/10 04:10:37;;;;;;;5.00;2.90;;;;;;;;;;5066554;28;20425;-62
2023/04/10 04:13:03;;;;;;;3.30;2.90;;;;;;;;;;5067181;28;20102;-62
2023/04/10 04:15:28;;;;;;;3.67;3.00;;;;;;;;;;5067037;28;20060;-62
2023/04/10 04:17:53;;;;;;;3.43;2.77;;;;;;;;;;5067546;28;20343;-61
2023/04/10 04:20:19;;;;;;;3.33;2.70;;;;;;;;;;5076897;28;20390;-62
2023/04/10 04:22:45;;;;;;;3.08;2.60;;;;;;;;;;5067515;28;20070;-63
2023/04/10 04:25:10;;;;;;;3.25;2.67;;;;;;;;;;5057514;28;20418;-63
2023/04/10 04:27:35;;;;;;;3.33;2.70;;;;;;;;;;5054539;28;20251;-62
2023/04/10 04:30:01;;;;;;;4.50;2.92;;;;;;;;;;5058954;28;20270;-60
2023/04/10 04:32:26;;;;;;;4.13;3.00;;;;;;;;;;5050950;28;20050;-64
2023/04/10 04:34:51;;;;;;;3.13;2.72;;;;;;;;;;5047940;28;20057;-64
2023/04/10 04:37:17;;;;;;;3.33;2.70;;;;;;;;;;5052109;28;20029;-63
2023/04/10 04:39:42;;;;;;;4.13;2.87;;;;;;;;;;5054468;28;20281;-62
2023/04/10 04:42:07;;;;;;;3.23;2.57;;;;;;;;;;5055971;28;20035;-60
2023/04/10 04:44:33;;;;;;;3.10;2.40;;;;;;;;;;5049276;28;20488;-62
2023/04/10 04:46:58;;;;;;;3.13;2.57;;;;;;;;;;5050617;28;20029;-63
2023/04/10 04:49:23;;;;;;;4.20;2.87;;;;;;;;;;5052817;28;20285;-64
2023/04/10 04:51:48;;;;;;;3.63;2.80;;;;;;;;;;5057632;28;20045;-63
2023/04/10 04:54:13;;;;;;;2.77;2.17;;;;;;;;;;5058425;28;20051;-61
2023/04/10 04:56:39;;;;;;;3.77;2.50;;;;;;;;;;5055836;28;20048;-62
2023/04/10 04:59:04;;;;;;;3.33;2.67;;;;;;;;;;5062041;28;21390;-62
2023/04/10 05:01:29;;;;;;;2.90;2.60;;;;;;;;;;5058930;28;20031;-62
2023/04/10 05:03:55;;;;;;;3.10;2.50;;;;;;;;;;5053820;28;20033;-63
2023/04/10 05:06:20;;;;;;;3.17;2.55;;;;;;;;;;5060265;28;20379;-61
2023/04/10 05:08:46;;;;;;;3.47;2.75;;;;;;;;;;5054047;28;20033;-62
2023/04/10 05:11:11;;;;;;;3.00;2.50;;;;;;;;;;5059381;28;20078;-62
2023/04/10 05:13:36;;;;;;;3.23;2.50;;;;;;;;;;5057555;28;20301;-60
2023/04/10 05:16:01;;;;;;;12.97;3.07;;;;;;;;;;5049255;28;20062;-59
2023/04/10 05:18:27;;;;;;;6.40;3.20;;;;;;;;;;5057475;28;20116;-63
2023/04/10 05:20:52;;;;;;;9.20;3.40;;;;;;;;;;5061405;28;20286;-62
2023/04/10 05:23:17;;;;;;;8.53;2.93;;;;;;;;;;5054857;28;20267;-62
2023/04/10 05:25:42;;;;;;;8.57;3.43;;;;;;;;;;5055445;28;20819;-61
2023/04/10 05:28:07;;;;;;;7.13;3.03;;;;;;;;;;5056835;28;20639;-62
2023/04/10 05:30:33;;;;;;;10.03;2.73;;;;;;;;;;5056613;28;20409;-61
2023/04/10 05:32:58;;;;;;;8.53;2.77;;;;;;;;;;5052883;28;20051;-64
2023/04/10 05:35:23;;;;;;;10.23;2.63;;;;;;;;;;5060754;28;20297;-63
2023/04/10 05:37:48;;;;;;;12.50;2.90;;;;;;;;;;5055273;28;20041;-62
2023/04/10 05:40:14;;;;;;;10.13;3.20;;;;;;;;;;5050403;28;20381;-62
2023/04/10 05:42:39;;;;;;;8.27;3.10;;;;;;;;;;5057753;28;20294;-64
2023/04/10 05:45:05;;;;;;;8.37;3.33;;;;;;;;;;5060352;28;20142;-63
2023/04/10 05:47:30;;;;;;;11.50;3.10;;;;;;;;;;5064730;28;20483;-64
2023/04/10 05:49:55;;;;;;;9.90;3.83;;;;;;;;;;5056371;28;20516;-63
2023/04/10 05:52:21;;;;;;;11.57;3.53;;;;;;;;;;5058534;28;20463;-62
2023/04/10 05:54:46;;;;;;;9.50;2.60;;;;;;;;;;5057067;28;20298;-62
2023/04/10 05:57:11;;;;;;;13.20;3.00;;;;;;;;;;5052820;28;20307;-62
2023/04/10 05:59:36;;;;;;;9.88;3.10;;;;;;;;;;5060193;28;20029;-63
2023/04/10 06:02:01;;;;;;;7.67;2.97;;;;;;;;;;5055389;28;20037;-63
2023/04/10 06:04:27;;;;;;;7.33;3.00;;;;;;;;;;5052128;28;20024;-64
2023/04/10 06:06:52;;;;;;;8.63;2.85;;;;;;;;;;5053772;28;20283;-62
2023/04/10 06:09:17;;;;;;;10.45;3.28;;;;;;;;;;5064681;28;20048;-63
2023/04/10 06:11:43;;;;;;;12.40;3.37;;;;;;;;;;5050708;28;20067;-62
2023/04/10 06:14:08;;;;;;;9.13;2.87;;;;;;;;;;5050423;28;20340;-63
2023/04/10 06:16:33;;;;;;;6.63;3.40;;;;;;;;;;5047676;28;20025;-62
2023/04/10 06:18:59;;;;;;;10.90;3.05;;;;;;;;;;5057924;28;20295;-60
2023/04/10 06:21:24;;;;;;;8.65;3.08;;;;;;;;;;5056373;28;20071;-65
2023/04/10 06:23:50;;;;;;;12.43;3.50;;;;;;;;;;5061659;28;20123;-62
2023/04/10 06:26:15;;;;;;;9.07;3.27;;;;;;;;;;5055448;28;20130;-61
2023/04/10 06:28:41;;;;;;;14.75;3.15;;;;;;;;;;5056518;28;20422;-62
2023/04/10 06:31:06;;;;;;;9.70;3.30;;;;;;;;;;5060269;28;20033;-64
2023/04/10 06:33:34;;;;;;;6.80;3.08;;;;;;;;;;5056446;28;20306;-65
2023/04/10 06:35:59;;;;;;;12.73;3.05;;;;;;;;;;5062428;28;20114;-62
2023/04/10 06:38:25;;;;;;;7.43;3.17;;;;;;;;;;5065622;28;20497;-63
2023/04/10 06:40:50;;;;;;;11.87;3.87;;;;;;;;;;5064053;28;20040;-62
2023/04/10 06:43:15;;;;;;;9.60;3.13;;;;;;;;;;5059765;28;20043;-62
2023/04/10 06:45:40;;;;;;;12.47;3.13;;;;;;;;;;5056365;28;20037;-62
2023/04/10 06:48:06;;;;;;;13.00;3.60;;;;;;;;;;5050036;28;20316;-66
2023/04/10 06:50:31;;;;;;;9.27;3.50;;;;;;;;;;5057897;28;20044;-65
2023/04/10 06:52:58;;;;;;;8.43;3.37;;;;;;;;;;5060328;28;20029;-61
2023/04/10 06:55:24;;;;;;;10.85;3.58;;;;;;;;;;5063217;28;20513;-64
2023/04/10 06:57:49;;;;;;;12.30;3.72;;;;;;;;;;5060487;28;20044;-62
2023/04/10 07:00:15;;;;;;;12.37;3.50;;;;;;;;;;5049395;28;20036;-62
2023/04/10 07:02:40;;;;;;;10.85;3.25;;;;;;;;;;5053322;28;20071;-64
2023/04/10 07:05:06;;;;;;;12.23;3.88;;;;;;;;;;5054063;28;20048;-62
2023/04/10 07:07:31;;;;;;;13.13;3.88;;;;;;;;;;5052351;28;20489;-67
2023/04/10 07:09:57;;;;;;;8.73;2.88;;;;;;;;;;5057963;28;20421;-64
2023/04/10 07:12:22;;;;;;;10.68;3.60;;;;;;;;;;5054603;28;20063;-68
2023/04/10 07:14:48;;;;;;;11.80;3.53;;;;;;;;;;5054501;28;20012;-66
2023/04/10 07:17:13;;;;;;;10.67;3.63;;;;;;;;;;5053183;28;20328;-66
2023/04/10 07:19:38;;;;;;;11.25;3.90;;;;;;;;;;5060138;28;20027;-71
2023/04/10 07:22:04;;;;;;;13.55;3.80;;;;;;;;;;5060197;28;20058;-64
2023/04/10 07:24:30;;;;;;;13.57;3.85;;;;;;;;;;5057240;28;20016;-65
2023/04/10 07:26:56;;;;;;;12.48;3.70;;;;;;;;;;5064462;28;20292;-66
2023/04/10 07:29:21;;;;;;;14.38;3.90;;;;;;;;;;5057528;28;20391;-63
2023/04/10 07:31:46;;;;;;;10.73;3.67;;;;;;;;;;5056748;28;20013;-64
2023/04/10 07:34:11;;;;;;;11.20;3.53;;;;;;;;;;5065735;28;20027;-61
2023/04/10 07:36:37;;;;;;;10.98;3.47;;;;;;;;;;5059466;28;20416;-64
2023/04/10 07:39:02;;;;;;;8.90;3.45;;;;;;;;;;5066951;28;20012;-63
2023/04/10 07:41:27;;;;;;;10.95;4.00;;;;;;;;;;5066018;28;20020;-62
2023/04/10 07:43:53;;;;;;;11.80;3.63;;;;;;;;;;5062428;28;20551;-65
2023/04/10 07:46:18;;;;;;;10.43;3.47;;;;;;;;;;5057196;28;20050;-65
2023/04/10 07:48:43;;;;;;;9.23;3.70;;;;;;;;;;5040729;28;20314;-64
2023/04/10 07:51:08;;;;;;;15.90;3.43;;;;;;;;;;5057746;28;20122;-63
2023/04/10 07:53:35;;;;;;;10.70;3.47;;;;;;;;;;5054720;28;20267;-63
2023/04/10 07:56:00;;;;;;;12.18;3.50;;;;;;;;;;5053111;28;20106;-63
2023/04/10 07:58:25;;;;;;;11.88;3.47;;;;;;;;;;5065987;28;20458;-66
2023/04/10 08:00:50;;;;;;;8.90;3.60;;;;;;;;;;5066356;28;20021;-66
2023/04/10 08:03:16;;;;;;;9.38;3.30;;;;;;;;;;5067281;28;20105;-64
2023/04/10 08:05:41;;;;;;;10.27;3.40;;;;;;;;;;5058218;28;20092;-64
2023/04/10 08:08:06;;;;;;;8.43;3.37;;;;;;;;;;5063175;28;20064;-63
2023/04/10 08:10:31;;;;;;;7.57;3.63;;;;;;;;;;5061438;28;20052;-63
2023/04/10 08:12:57;;;;;;;10.98;3.60;;;;;;;;;;5057245;28;20017;-63
2023/04/10 08:15:22;;;;;;;7.07;3.10;;;;;;;;;;5050217;28;20522;-66
2023/04/10 08:17:47;;;;;;;9.00;3.67;;;;;;;;;;5058946;28;20269;-63
2023/04/10 08:20:12;;;;;;;6.17;3.00;;;;;;;;;;5060395;28;20274;-64
2023/04/10 08:22:38;;;;;;;9.05;3.25;;;;;;;;;;5061700;28;20309;-64
2023/04/10 08:25:03;;;;;;;8.30;3.23;;;;;;;;;;5051919;28;20043;-63
2023/04/10 08:27:29;;;;;;;8.48;3.88;;;;;;;;;;5065461;28;20154;-63
2023/04/10 08:29:54;;;;;;;8.68;3.65;;;;;;;;;;5064720;28;20098;-63
2023/04/10 08:32:20;;;;;;;8.35;3.33;;;;;;;;;;5066939;28;20017;-62
2023/04/10 08:34:45;;;;;;;10.05;3.42;;;;;;;;;;5066351;28;20060;-63
2023/04/10 08:37:11;;;;;;;9.10;3.77;;;;;;;;;;5065715;28;20049;-65
2023/04/10 08:39:36;;;;;;;6.63;3.20;;;;;;;;;;5066955;28;20355;-66
2023/04/10 08:42:02;;;;;;;7.65;3.10;;;;;;;;;;5056830;28;20033;-67
2023/04/10 08:44:27;;;;;;;8.18;3.05;;;;;;;;;;5063634;28;20012;-65
2023/04/10 08:46:52;;;;;;;8.73;3.50;;;;;;;;;;5048984;28;20380;-65
2023/04/10 08:49:25;;;;;;;6.63;3.43;;;;;;;;;;5064001;28;20294;-62
2023/04/10 08:51:51;;;;;;;6.32;3.10;;;;;;;;;;5056259;28;20512;-65
2023/04/10 08:54:20;;;;;;;8.90;3.40;;;;;;;;;;5051956;28;20037;-66
2023/04/10 08:56:49;;;;;;;8.13;3.63;;;;;;;;;;5064640;28;20494;-64
2023/04/10 08:59:14;;;;;;;6.97;3.50;;;;;;;;;;5065565;28;20037;-64
2023/04/10 09:01:40;;;;;;;8.32;3.03;;;;;;;;;;5065094;28;20043;-63
2023/04/10 09:04:05;;;;;;;8.07;3.38;;;;;;;;;;5060903;28;20127;-63
2023/04/10 09:06:30;;;;;;;8.53;3.20;;;;;;;;;;5064979;28;20040;-62
2023/04/10 09:08:58;;;;;;;7.47;3.13;;;;;;;;;;5066651;28;20748;-60
2023/04/10 09:11:23;;;;;;;6.97;3.30;;;;;;;;;;5054765;28;20173;-64
2023/04/10 09:13:49;;;;;;;8.10;3.10;;;;;;;;;;5038947;28;20033;-61
2023/04/10 09:16:15;;;;;;;8.48;3.95;;;;;;;;;;5057679;28;20033;-63
2023/04/10 09:18:47;;;;;;;6.75;3.60;;;;;;;;;;5062667;28;20074;-61
2023/04/10 09:21:13;;;;;;;9.20;3.42;;;;;;;;;;5055913;28;20044;-63
2023/04/10 09:23:39;;;;;;;7.80;3.17;;;;;;;;;;5061637;28;20033;-61
2023/04/10 09:26:08;;;;;;;9.65;3.50;;;;;;;;;;5062648;28;20353;-65
2023/04/10 09:28:35;;;;;;;7.85;3.85;;;;;;;;;;5058751;28;20216;-62
2023/04/10 09:31:00;;;;;;;7.28;3.00;;;;;;;;;;5060812;28;20115;-64
2023/04/10 09:33:29;;;;;;;7.53;3.17;;;;;;;;;;5064871;28;20112;-63
2023/04/10 09:35:59;;;;;;;7.15;3.38;;;;;;;;;;5059609;28;20295;-63
2023/04/10 09:38:25;;;;;;;7.70;3.38;;;;;;;;;;5028784;28;20109;-62
2023/04/10 09:40:50;;;;;;;6.20;3.47;;;;;;;;;;5059263;28;20652;-63
2023/04/10 09:43:16;;;;;;;7.00;3.37;;;;;;;;;;5062212;28;20047;-64
2023/04/10 09:45:48;;;;;;;7.20;3.47;;;;;;;;;;5051798;28;20068;-63
2023/04/10 09:48:13;;;;;;;7.32;3.38;;;;;;;;;;5049137;28;20053;-61
2023/04/10 09:50:39;;;;;;;5.82;2.90;;;;;;;;;;5039382;28;20039;-62
2023/04/10 09:53:05;;;;;;;5.45;3.00;;;;;;;;;;5057289;28;20394;-65
2023/04/10 09:55:30;;;;;;;6.20;3.00;;;;;;;;;;5063816;28;20102;-62
2023/04/10 09:57:56;;;;;;;5.40;2.80;;;;;;;;;;5064696;28;20036;-62
2023/04/10 10:00:21;;;;;;;6.22;2.97;;;;;;;;;;5053748;28;20659;-63
2023/04/10 10:02:46;;;;;;;7.93;3.30;;;;;;;;;;5059897;28;20093;-63
2023/04/10 10:05:11;;;;;;;7.47;3.20;;;;;;;;;;5063553;28;20033;-64
2023/04/10 10:07:36;;;;;;;6.13;2.93;;;;;;;;;;5061106;28;20189;-62
2023/04/10 10:10:02;;;;;;;6.50;3.40;;;;;;;;;;5044830;28;20373;-61
2023/04/10 10:12:33;;;;;;;5.55;3.28;;;;;;;;;;5052324;28;20361;-62
2023/04/10 10:15:07;;;;;;;7.65;3.65;;;;;;;;;;5060462;22;20110;-59
2023/04/10 10:17:38;;;;;;;7.68;3.40;;;;;;;;;;5041921;28;20051;-58
2023/04/10 10:20:04;;;;;;;6.45;3.08;;;;;;;;;;5040679;28;20044;-58
2023/04/10 10:22:29;;;;;;;4.93;2.70;;;;;;;;;;5024696;28;20041;-60
2023/04/10 10:24:55;;;;;;;5.30;3.15;;;;;;;;;;5037285;28;20501;-58
2023/04/10 10:27:21;;;;;;;7.15;3.33;;;;;;;;;;5041586;28;20051;-60
2023/04/10 10:29:47;;;;;;;7.35;3.00;;;;;;;;;;5038843;28;20116;-59
2023/04/10 10:32:12;;;;;;;5.40;3.28;;;;;;;;;;5044587;28;20025;-59
2023/04/10 10:34:37;;;;;;;5.73;3.13;;;;;;;;;;5038201;28;20037;-60
2023/04/10 10:37:03;;;;;;;5.50;3.17;;;;;;;;;;5039566;28;20025;-59
2023/04/10 10:39:40;;;;;;;4.95;3.10;;;;;;;;;;5020863;28;20298;-59
2023/04/10 10:42:11;;;;;;;8.00;3.50;;;;;;;;;;5037238;28;20036;-59
2023/04/10 10:44:46;;;;;;;5.97;3.15;;;;;;;;;;5042155;28;20048;-59
2023/04/10 10:47:14;;;;;;;5.95;3.30;;;;;;;;;;5042425;28;20033;-59
2023/04/10 10:50:05;;;;;;;5.10;3.50;;;;;;;;;;5043040;28;20040;-59
2023/04/10 10:52:37;;;;;;;5.18;2.95;;;;;;;;;;5041960;28;20029;-59
2023/04/10 10:55:35;;;;;;;5.57;3.08;;;;;;;;;;5042336;28;20033;-59
2023/04/10 10:58:01;;;;;;;5.43;2.90;;;;;;;;;;5037956;28;20136;-59
2023/04/10 11:00:46;;;;;;;4.28;3.03;;;;;;;;;;5041800;28;20064;-59
2023/04/10 11:03:14;;;;;;;6.25;2.97;;;;;;;;;;5039392;28;20128;-59
2023/04/10 11:05:53;;;;;;;5.90;3.35;;;;;;;;;;5043009;28;20101;-58
2023/04/10 11:08:34;;;;;;;4.53;2.72;;;;;;;;;;5039281;28;20052;-59
2023/04/10 11:11:06;;;;;;;5.05;3.10;;;;;;;;;;5040832;28;20033;-59
2023/04/10 11:13:34;;;;;;;5.43;2.90;;;;;;;;;;5040764;28;20041;-60
2023/04/10 11:16:00;;;;;;;4.07;2.88;;;;;;;;;;5036340;28;20048;-59
2023/04/10 11:18:47;;;;;;;5.50;3.10;;;;;;;;;;5037215;28;20029;-59
2023/04/10 11:21:13;;;;;;;5.55;3.05;;;;;;;;;;5040795;28;20041;-59
2023/04/10 11:23:59;;;;;;;4.70;3.05;;;;;;;;;;5038157;28;20075;-60
2023/04/10 11:26:43;;;;;;;4.72;3.30;;;;;;;;;;5037909;28;20088;-59
2023/04/10 11:29:17;;;;;;;4.57;3.00;;;;;;;;;;5039723;28;20060;-59
2023/04/10 11:31:46;;;;;;;4.82;3.10;;;;;;;;;;5037379;28;20044;-58
2023/04/10 11:34:12;;;;;;;5.47;3.25;;;;;;;;;;5035626;28;20084;-60
2023/04/10 11:36:37;;;;;;;5.07;3.00;;;;;;;;;;5046821;28;20029;-60
2023/04/10 11:39:12;;;;;;;5.78;3.45;;;;;;;;;;5039190;28;20045;-59
2023/04/10 11:41:46;;;;;;;5.50;3.20;;;;;;;;;;5057547;22;20084;-59
2023/04/10 11:44:15;;;;;;;4.40;3.20;;;;;;;;;;5021897;28;20047;-62
2023/04/10 11:46:42;;;;;;;4.57;3.10;;;;;;;;;;5012027;28;20045;-59
2023/04/10 11:49:10;;;;;;;4.40;2.97;;;;;;;;;;5032539;28;20758;-59
2023/04/10 11:51:36;;;;;;;4.78;3.17;;;;;;;;;;5008280;28;20033;-60
2023/04/10 11:54:04;;;;;;;6.13;3.20;;;;;;;;;;5033948;28;20136;-58
2023/04/10 11:56:29;;;;;;;4.65;3.40;;;;;;;;;;5014289;28;20038;-59
2023/04/10 11:58:54;;;;;;;4.83;3.27;;;;;;;;;;5033437;28;20036;-60
2023/04/10 12:01:20;;;;;;;5.00;3.27;;;;;;;;;;5034865;28;20298;-60
2023/04/10 12:03:45;;;;;;;4.57;2.80;;;;;;;;;;5033714;28;20281;-60
2023/04/10 12:06:11;;;;;;;6.07;3.10;;;;;;;;;;5033816;28;20075;-60
2023/04/10 12:08:40;;;;;;;4.00;3.03;;;;;;;;;;5037231;28;20037;-60
2023/04/10 12:11:06;;;;;;;4.50;3.17;;;;;;;;;;5027478;28;20531;-59
2023/04/10 12:13:31;;;;;;;4.55;3.13;;;;;;;;;;5032617;28;20033;-61
2023/04/10 12:15:58;;;;;;;5.22;3.28;;;;;;;;;;5012028;28;20116;-62
2023/04/10 12:18:23;;;;;;;4.43;3.13;;;;;;;;;;5019116;28;20041;-60
2023/04/10 12:20:50;;;;;;;3.73;2.87;;;;;;;;;;5037952;28;20044;-61
2023/04/10 12:23:15;;;;;;;3.78;3.10;;;;;;;;;;5036811;28;20292;-61
2023/04/10 12:25:41;;;;;;;4.40;2.95;;;;;;;;;;5041820;28;20037;-60
2023/04/10 12:28:06;;;;;;;4.60;3.17;;;;;;;;;;5024639;28;20041;-60
2023/04/10 12:30:32;;;;;;;4.45;3.03;;;;;;;;;;5038502;28;20065;-59
2023/04/10 12:32:59;;;;;;;5.23;3.60;;;;;;;;;;5021809;28;20058;-59
2023/04/10 12:35:41;;;;;;;4.35;3.08;;;;;;;;;;5006676;28;20099;-60
2023/04/10 12:38:06;;;;;;;4.45;3.40;;;;;;;;;;5018514;28;20037;-60
2023/04/10 12:40:31;;;;;;;5.33;3.20;;;;;;;;;;5036722;28;20092;-60
2023/04/10 12:42:56;;;;;;;4.22;3.10;;;;;;;;;;5021092;28;20302;-60
2023/04/10 12:45:39;;;;;;;4.97;3.57;;;;;;;;;;5039070;28;20421;-60
2023/04/10 12:48:05;;;;;;;5.88;3.15;;;;;;;;;;5042232;28;20335;-59
2023/04/10 12:50:30;;;;;;;4.53;3.20;;;;;;;;;;5019037;28;20068;-59
2023/04/10 12:53:09;;;;;;;3.93;3.20;;;;;;;;;;5022347;28;20291;-60
2023/04/10 12:55:34;;;;;;;4.15;3.40;;;;;;;;;;5018262;28;20295;-60
2023/04/10 12:58:15;;;;;;;5.67;3.07;;;;;;;;;;5038089;28;20339;-60
2023/04/10 13:00:40;;;;;;;4.95;3.45;;;;;;;;;;5026628;28;20892;-60
2023/04/10 13:03:05;;;;;;;4.50;3.50;;;;;;;;;;5021736;28;20021;-61
2023/04/10 13:05:30;;;;;;;4.23;3.10;;;;;;;;;;5038447;28;20101;-60
2023/04/10 13:07:56;;;;;;;3.73;3.00;;;;;;;;;;5020766;28;20310;-60
2023/04/10 13:10:23;;;;;;;4.33;3.20;;;;;;;;;;5035901;28;20557;-60
2023/04/10 13:12:48;;;;;;;3.90;2.80;;;;;;;;;;5039022;28;20041;-61
2023/04/10 13:15:13;;;;;;;3.53;2.90;;;;;;;;;;5017028;28;20540;-60
2023/04/10 13:17:40;;;;;;;4.37;3.23;;;;;;;;;;5034678;28;20037;-60
2023/04/10 13:20:06;;;;;;;4.10;3.17;;;;;;;;;;5039183;28;20681;-60
2023/04/10 13:22:31;;;;;;;3.70;2.67;;;;;;;;;;5016096;28;20119;-61
2023/04/10 13:24:56;;;;;;;4.13;3.08;;;;;;;;;;5036726;28;20120;-61
2023/04/10 13:27:22;;;;;;;4.32;3.47;;;;;;;;;;5039103;28;20033;-60
2023/04/10 13:29:47;;;;;;;3.93;3.03;;;;;;;;;;5039115;28;20397;-62
2023/04/10 13:32:12;;;;;;;4.17;3.20;;;;;;;;;;5041513;28;20033;-59
2023/04/10 13:34:37;;;;;;;4.63;3.27;;;;;;;;;;5039675;28;20359;-59
2023/04/10 13:37:02;;;;;;;4.87;3.40;;;;;;;;;;5031392;28;20468;-61
2023/04/10 13:39:28;;;;;;;5.30;3.40;;;;;;;;;;5032018;28;20480;-60
2023/04/10 13:41:53;;;;;;;4.10;3.28;;;;;;;;;;5043884;28;20486;-59
2023/04/10 13:44:18;;;;;;;4.00;3.03;;;;;;;;;;5049436;28;20432;-60
2023/04/10 13:46:44;;;;;;;3.87;3.30;;;;;;;;;;5045447;28;20501;-60
2023/04/10 13:49:09;;;;;;;4.72;3.53;;;;;;;;;;5039589;28;20280;-59
2023/04/10 13:51:34;;;;;;;4.60;3.40;;;;;;;;;;5043645;28;20044;-59
2023/04/10 13:54:01;;;;;;;4.73;3.33;;;;;;;;;;5034079;28;20041;-60
2023/04/10 13:56:26;;;;;;;4.10;3.42;;;;;;;;;;5040263;28;20282;-62
2023/04/10 13:58:52;;;;;;;4.87;3.47;;;;;;;;;;5034293;28;20029;-60
2023/04/10 14:01:17;;;;;;;4.45;3.38;;;;;;;;;;5045098;28;20268;-60
2023/04/10 14:03:42;;;;;;;4.53;3.30;;;;;;;;;;5044567;28;20029;-60
2023/04/10 14:06:07;;;;;;;4.63;3.80;;;;;;;;;;5043712;28;20282;-61
2023/04/10 14:08:33;;;;;;;5.45;4.07;;;;;;;;;;5046310;28;20155;-60
2023/04/10 14:10:58;;;;;;;5.27;3.93;;;;;;;;;;5045068;28;20441;-60
2023/04/10 14:13:23;;;;;;;7.20;4.30;;;;;;;;;;5043897;28;20040;-59
2023/04/10 14:15:50;;;;;;;5.33;4.10;;;;;;;;;;5037348;28;20279;-61
2023/04/10 14:18:17;;;;;;;6.47;4.88;;;;;;;;;;5039204;28;20746;-59
2023/04/10 14:20:42;;;;;;;6.78;5.22;;;;;;;;;;5035460;28;20033;-60
2023/04/10 14:23:07;;;;;;;6.80;5.33;;;;;;;;;;5037503;28;20037;-60
2023/04/10 14:25:33;;;;;;;7.95;5.80;;;;;;;;;;5044800;28;20087;-60
2023/04/10 14:27:58;;;;;;;8.10;5.40;;;;;;;;;;5037436;28;20151;-60
2023/04/10 14:30:27;;;;;;;7.35;5.28;;;;;;;;;;5043797;28;20114;-60
2023/04/10 14:32:53;;;;;;;7.47;5.50;;;;;;;;;;5046713;28;20042;-59
2023/04/10 14:35:18;;;;;;;7.88;5.97;;;;;;;;;;5054837;28;20283;-61
2023/04/10 14:37:44;;;;;;;7.70;6.30;;;;;;;;;;5035074;28;20045;-59